Terminal Aerodrome Forecast
Issued by NWS Greer, SC

Home | Current Version | Previous Version | Text Only | Print | Product List | Glossary On
Versions: 1 2 3 4 5 6 7 8 9 10 11 12 13 14 15 16 17 18 19 20 21 22 23 24 25 26
000
FTUS42 KGSP 050531
TAFAVL
TAF
KAVL 050531Z 0506/0606 34003KT P6SM BKN250
     FM051600 20006KT P6SM SCT050 BKN250
     FM051900 32007KT P6SM BKN050 PROB30 0519/0601 4SM TSRA BKN040CB
     FM060100 34005KT P6SM BKN060 PROB30 0601/0606 4SM TSRA
      BKN040CB=

USA.gov is the U.S. government's official web portal to all federal, state and local government web resources and services.